createdAt,value
2018-05-01T00:00:39.696Z,9.44
2018-05-01T00:03:07.343Z,9.31
2018-05-01T00:05:35.518Z,9.31
2018-05-01T00:08:03.166Z,9.23
2018-05-01T00:10:30.763Z,9.38
2018-05-01T00:12:58.423Z,9.41
2018-05-01T00:15:26.039Z,9.26
2018-05-01T00:17:53.678Z,9.25
2018-05-01T00:20:21.284Z,9.32
2018-05-01T00:22:48.927Z,9.23
2018-05-01T00:25:16.544Z,9.14
2018-05-01T00:27:44.183Z,9.12
2018-05-01T00:30:11.787Z,9.05
2018-05-01T00:32:39.475Z,8.97
2018-05-01T00:35:07.071Z,9.03
2018-05-01T00:37:34.719Z,8.93
2018-05-01T00:40:02.332Z,8.87
2018-05-01T00:42:29.975Z,8.93
2018-05-01T00:44:57.571Z,8.93
2018-05-01T00:47:25.214Z,8.96
2018-05-01T00:49:52.820Z,8.94
2018-05-01T00:52:32.409Z,8.90
2018-05-01T00:55:00.019Z,8.95
2018-05-01T00:57:27.666Z,8.90
2018-05-01T00:59:55.280Z,8.91
2018-05-01T01:02:22.923Z,9.00
2018-05-01T01:04:50.513Z,9.15
2018-05-01T01:07:18.223Z,9.25
2018-05-01T01:09:45.848Z,9.31
2018-05-01T01:12:13.489Z,9.10
2018-05-01T01:14:41.133Z,8.89
2018-05-01T01:17:08.788Z,8.95
2018-05-01T01:19:36.388Z,8.99
2018-05-01T01:22:04.027Z,9.12
2018-05-01T01:24:31.628Z,9.29
2018-05-01T01:26:59.289Z,9.19
2018-05-01T01:29:26.922Z,9.08
2018-05-01T01:31:54.633Z,9.06
2018-05-01T01:34:22.227Z,9.06
2018-05-01T01:36:49.339Z,9.01
2018-05-01T01:39:16.416Z,9.12
2018-05-01T01:41:43.527Z,9.14
2018-05-01T01:44:10.596Z,8.94
2018-05-01T01:46:37.711Z,9.01
2018-05-01T01:49:04.829Z,9.14
2018-05-01T01:51:31.934Z,9.09
2018-05-01T01:53:59.104Z,8.97
2018-05-01T01:56:26.210Z,8.74
2018-05-01T01:58:53.283Z,8.63
2018-05-01T02:01:20.398Z,8.67
2018-05-01T02:03:47.466Z,8.69
2018-05-01T02:06:15.135Z,8.66
2018-05-01T02:08:42.244Z,8.57
2018-05-01T02:11:09.321Z,8.67
2018-05-01T02:13:36.434Z,8.59
2018-05-01T02:16:03.505Z,8.49
2018-05-01T02:18:30.615Z,8.50
2018-05-01T02:20:57.703Z,8.62
2018-05-01T02:23:24.836Z,8.44
2018-05-01T02:25:51.900Z,8.49
2018-05-01T02:28:19.010Z,8.33
2018-05-01T02:30:46.088Z,8.30
2018-05-01T02:33:13.193Z,8.46
2018-05-01T02:35:41.088Z,8.37
2018-05-01T02:38:08.200Z,8.30
2018-05-01T02:40:35.278Z,8.31
2018-05-01T02:43:02.380Z,8.32
2018-05-01T02:45:29.444Z,8.35
2018-05-01T02:47:56.556Z,8.40
2018-05-01T02:50:23.644Z,8.37
2018-05-01T02:52:50.759Z,8.37
2018-05-01T02:55:17.827Z,8.37
2018-05-01T02:57:44.957Z,8.36
2018-05-01T03:00:12.058Z,8.39
2018-05-01T03:02:39.180Z,8.44
2018-05-01T03:05:06.258Z,8.41
2018-05-01T03:07:33.328Z,8.47
2018-05-01T03:10:00.436Z,8.38
2018-05-01T03:12:27.498Z,8.28
2018-05-01T03:14:54.598Z,8.30
2018-05-01T03:17:21.673Z,8.24
2018-05-01T03:19:48.779Z,8.22
2018-05-01T03:22:15.845Z,8.29
2018-05-01T03:24:42.957Z,8.34
2018-05-01T03:27:10.039Z,8.25
2018-05-01T03:29:37.155Z,8.15
2018-05-01T03:32:04.246Z,8.11
2018-05-01T03:34:31.371Z,8.23
2018-05-01T03:36:58.430Z,8.18
2018-05-01T03:39:25.533Z,8.26
2018-05-01T03:41:52.603Z,8.24
2018-05-01T03:44:19.714Z,8.30
2018-05-01T03:46:46.783Z,8.15
2018-05-01T03:49:13.888Z,8.22
2018-05-01T03:51:40.968Z,8.26
2018-05-01T03:54:08.087Z,8.25
2018-05-01T03:56:35.181Z,8.18
2018-05-01T03:59:02.258Z,8.06
2018-05-01T04:01:29.373Z,7.97
2018-05-01T04:03:56.438Z,8.14
2018-05-01T04:06:23.546Z,7.97
2018-05-01T04:08:50.637Z,8.04
2018-05-01T04:11:17.735Z,7.96
2018-05-01T04:13:45.740Z,7.97
2018-05-01T04:16:12.850Z,7.99
2018-05-01T04:18:39.919Z,8.02
2018-05-01T04:21:07.027Z,8.04
2018-05-01T04:23:34.114Z,8.05
2018-05-01T04:26:01.210Z,8.02
2018-05-01T04:28:28.291Z,7.94
2018-05-01T04:30:55.397Z,7.99
2018-05-01T04:33:22.451Z,8.03
2018-05-01T04:35:49.581Z,7.95
2018-05-01T04:38:16.654Z,7.93
2018-05-01T04:40:43.769Z,7.98
2018-05-01T04:43:10.842Z,7.85
2018-05-01T04:45:37.958Z,7.91
2018-05-01T04:48:05.074Z,7.88
2018-05-01T04:50:32.146Z,7.97
2018-05-01T04:52:59.251Z,8.00
2018-05-01T04:55:26.368Z,8.00
2018-05-01T04:57:53.481Z,8.16
2018-05-01T05:00:20.546Z,8.16
2018-05-01T05:02:47.667Z,8.10
2018-05-01T05:05:14.753Z,8.16
2018-05-01T05:07:41.858Z,8.11
2018-05-01T05:10:08.927Z,8.12
2018-05-01T05:12:36.036Z,8.09
2018-05-01T05:15:03.102Z,8.10
2018-05-01T05:17:30.216Z,8.08
2018-05-01T05:19:57.283Z,8.01
2018-05-01T05:22:24.399Z,8.14
2018-05-01T05:24:51.479Z,8.23
2018-05-01T05:27:18.606Z,8.11
2018-05-01T05:29:45.669Z,8.18
2018-05-01T05:32:12.782Z,8.21
2018-05-01T05:34:39.887Z,8.18
2018-05-01T05:37:07.004Z,8.14
2018-05-01T05:39:34.067Z,8.41
2018-05-01T05:42:01.181Z,8.51
2018-05-01T05:44:28.247Z,8.53
2018-05-01T05:46:55.312Z,8.56
2018-05-01T05:49:22.463Z,8.69
2018-05-01T05:51:49.531Z,8.74
2018-05-01T05:54:16.647Z,8.81
2018-05-01T05:56:43.719Z,8.85
2018-05-01T05:59:10.836Z,8.55
2018-05-01T06:01:37.907Z,9.34
2018-05-01T06:04:05.004Z,9.73
2018-05-01T06:06:32.088Z,9.01
2018-05-01T06:08:59.194Z,9.56
2018-05-01T06:11:26.283Z,9.67
2018-05-01T06:13:53.385Z,9.34
2018-05-01T06:16:20.483Z,9.42
2018-05-01T06:18:47.606Z,9.03
2018-05-01T06:21:14.678Z,9.40
2018-05-01T06:23:41.792Z,9.34
2018-05-01T06:26:08.861Z,9.26
2018-05-01T06:28:35.974Z,9.29
2018-05-01T06:31:03.058Z,9.10
2018-05-01T06:33:30.171Z,9.02
2018-05-01T06:35:57.270Z,9.05
2018-05-01T06:38:24.377Z,9.22
2018-05-01T06:40:51.460Z,9.04
2018-05-01T06:43:18.563Z,8.92
2018-05-01T06:45:45.633Z,8.95
2018-05-01T06:48:12.741Z,9.06
2018-05-01T06:50:39.885Z,9.12
2018-05-01T06:53:06.973Z,9.08
2018-05-01T06:55:34.071Z,9.04
2018-05-01T06:58:01.187Z,9.06
2018-05-01T07:00:28.267Z,9.15
2018-05-01T07:02:55.401Z,9.20
2018-05-01T07:05:22.478Z,9.21
2018-05-01T07:07:49.588Z,9.35
2018-05-01T07:10:16.733Z,9.32
2018-05-01T07:12:43.869Z,9.21
2018-05-01T07:15:10.981Z,9.40
2018-05-01T07:17:38.060Z,9.67
2018-05-01T07:20:05.174Z,9.63
2018-05-01T07:22:32.256Z,9.42
2018-05-01T07:24:59.426Z,9.69
2018-05-01T07:27:26.594Z,10.22
2018-05-01T07:29:53.646Z,10.29
2018-05-01T07:32:20.709Z,10.27
2018-05-01T07:34:47.831Z,11.31
2018-05-01T07:37:14.915Z,11.63
2018-05-01T07:39:42.067Z,11.22
2018-05-01T07:42:09.136Z,10.93
2018-05-01T07:44:36.251Z,11.07
2018-05-01T07:47:03.326Z,11.22
2018-05-01T07:49:30.464Z,11.50
2018-05-01T07:51:57.544Z,12.05
2018-05-01T07:54:24.646Z,13.15
2018-05-01T07:56:51.763Z,14.65
2018-05-01T07:59:18.861Z,14.64
2018-05-01T08:01:45.983Z,15.61
2018-05-01T08:04:13.058Z,16.87
2018-05-01T08:06:40.208Z,17.12
2018-05-01T08:09:07.286Z,16.37
2018-05-01T08:11:34.410Z,17.26
2018-05-01T08:14:01.491Z,16.99
2018-05-01T08:16:28.605Z,17.03
2018-05-01T08:18:55.702Z,15.93
2018-05-01T08:21:22.814Z,17.43
2018-05-01T08:23:49.906Z,17.57
2018-05-01T08:26:17.004Z,19.25
2018-05-01T08:28:44.072Z,18.48
2018-05-01T08:31:11.204Z,16.12
2018-05-01T08:33:38.288Z,17.04
2018-05-01T08:36:05.407Z,17.59
2018-05-01T08:38:32.500Z,17.68
2018-05-01T08:40:59.615Z,18.84
2018-05-01T08:43:26.733Z,17.61
2018-05-01T08:45:53.818Z,18.00
2018-05-01T08:48:20.942Z,17.72
2018-05-01T08:50:48.008Z,17.68
2018-05-01T08:53:15.122Z,18.27
2018-05-01T08:55:42.193Z,20.01
2018-05-01T08:58:09.304Z,21.19
2018-05-01T09:00:36.372Z,18.02
2018-05-01T09:03:03.496Z,17.57
2018-05-01T09:05:30.606Z,17.63
2018-05-01T09:07:58.621Z,17.05
2018-05-01T09:10:25.701Z,16.21
2018-05-01T09:12:52.819Z,18.68
2018-05-01T09:15:19.890Z,18.74
2018-05-01T09:17:47.022Z,18.21
2018-05-01T09:20:14.152Z,16.59
2018-05-01T09:22:41.266Z,16.41
2018-05-01T09:25:08.338Z,18.44
2018-05-01T09:27:36.339Z,18.36
2018-05-01T09:30:03.412Z,19.56
2018-05-01T09:32:30.528Z,18.72
2018-05-01T09:34:57.595Z,18.81
2018-05-01T09:37:24.704Z,20.10
2018-05-01T09:39:51.819Z,16.70
2018-05-01T09:42:18.893Z,16.81
2018-05-01T09:44:46.008Z,19.78
2018-05-01T09:47:13.088Z,21.32
2018-05-01T09:49:40.194Z,22.33
2018-05-01T09:52:07.268Z,22.42
2018-05-01T09:54:34.924Z,21.26
2018-05-01T09:57:02.539Z,21.35
2018-05-01T09:59:30.197Z,18.51
2018-05-01T10:01:57.815Z,20.28
2018-05-01T10:04:25.503Z,20.76
2018-05-01T10:06:53.142Z,19.57
2018-05-01T10:09:20.801Z,19.44
2018-05-01T10:11:48.423Z,21.11
2018-05-01T10:14:16.065Z,23.52
2018-05-01T10:16:43.692Z,21.52
2018-05-01T10:19:11.384Z,23.49
2018-05-01T10:21:38.994Z,22.33
2018-05-01T10:24:07.193Z,21.47
2018-05-01T10:26:34.799Z,21.68
2018-05-01T10:29:02.507Z,21.12
2018-05-01T10:31:30.143Z,21.73
2018-05-01T10:33:57.839Z,21.74
2018-05-01T10:36:25.450Z,21.76
2018-05-01T10:38:53.111Z,20.71
2018-05-01T10:41:20.753Z,20.09
2018-05-01T10:43:48.369Z,20.62
2018-05-01T10:46:16.025Z,21.11
2018-05-01T10:48:43.692Z,20.69
2018-05-01T10:51:11.357Z,20.40
2018-05-01T10:53:38.967Z,18.76
2018-05-01T10:56:06.621Z,20.00
2018-05-01T10:58:34.243Z,19.56
2018-05-01T11:01:01.902Z,19.79
2018-05-01T11:03:29.540Z,19.87
2018-05-01T11:05:57.213Z,21.12
2018-05-01T11:08:24.891Z,20.25
2018-05-01T11:10:52.539Z,20.87
2018-05-01T11:13:20.152Z,19.60
2018-05-01T11:15:47.830Z,19.73
2018-05-01T11:18:15.443Z,20.36
2018-05-01T11:20:43.095Z,19.71
2018-05-01T11:23:10.712Z,18.85
2018-05-01T11:25:38.366Z,18.32
2018-05-01T11:28:05.978Z,18.19
2018-05-01T11:30:33.585Z,17.46
2018-05-01T11:33:01.302Z,18.88
2018-05-01T11:35:28.927Z,18.11
2018-05-01T11:37:56.632Z,18.39
2018-05-01T11:40:24.245Z,18.69
2018-05-01T11:42:51.910Z,17.40
2018-05-01T11:45:19.571Z,17.87
2018-05-01T11:47:47.229Z,18.72
2018-05-01T11:50:14.833Z,18.35
2018-05-01T11:52:42.496Z,19.33
2018-05-01T11:55:10.109Z,19.28
2018-05-01T11:57:37.754Z,18.31
2018-05-01T12:00:05.377Z,18.43
2018-05-01T12:02:33.051Z,19.10
2018-05-01T12:05:00.662Z,18.62
2018-05-01T12:07:28.328Z,18.54
2018-05-01T12:09:55.934Z,18.37
2018-05-01T12:12:23.586Z,18.71
2018-05-01T12:14:51.196Z,19.03
2018-05-01T12:17:18.801Z,19.03
2018-05-01T12:19:46.475Z,18.23
2018-05-01T12:22:14.088Z,17.64
2018-05-01T12:24:41.742Z,18.15
2018-05-01T12:27:09.366Z,18.28
2018-05-01T12:29:37.029Z,18.38
2018-05-01T12:32:04.645Z,18.56
2018-05-01T12:34:32.305Z,19.01
2018-05-01T12:37:00.032Z,18.54
2018-05-01T12:39:27.607Z,19.26
2018-05-01T12:41:55.230Z,18.72
2018-05-01T12:44:22.933Z,17.84
2018-05-01T12:46:50.553Z,17.46
2018-05-01T12:49:18.219Z,17.82
2018-05-01T12:51:45.830Z,18.65
2018-05-01T12:54:13.491Z,19.20
2018-05-01T12:56:41.117Z,19.69
2018-05-01T12:59:08.794Z,19.70
2018-05-01T13:01:36.460Z,20.49
2018-05-01T13:04:04.111Z,19.58
2018-05-01T13:06:31.730Z,19.10
2018-05-01T13:08:59.390Z,19.43
2018-05-01T13:11:27.035Z,19.25
2018-05-01T13:13:54.687Z,18.58
2018-05-01T13:16:22.320Z,19.09
2018-05-01T13:18:49.963Z,19.76
2018-05-01T13:21:17.580Z,20.03
2018-05-01T13:23:45.222Z,19.68
2018-05-01T13:26:12.866Z,19.60
2018-05-01T13:28:40.474Z,19.35
2018-05-01T13:31:08.134Z,19.60
2018-05-01T13:33:35.748Z,18.93
2018-05-01T13:36:03.394Z,18.09
2018-05-01T13:38:31.017Z,18.45
2018-05-01T13:40:58.674Z,18.43
2018-05-01T13:43:26.724Z,17.85
2018-05-01T13:45:54.378Z,18.28
2018-05-01T13:48:22.012Z,17.51
2018-05-01T13:50:49.654Z,17.93
2018-05-01T13:53:17.307Z,18.04
2018-05-01T13:55:44.972Z,18.61
2018-05-01T13:58:12.596Z,18.40
2018-05-01T14:00:40.243Z,18.31
2018-05-01T14:03:07.893Z,19.25
2018-05-01T14:05:35.544Z,18.68
2018-05-01T14:08:03.165Z,17.25
2018-05-01T14:10:30.816Z,15.70
2018-05-01T14:12:58.439Z,15.92
2018-05-01T14:15:26.106Z,16.81
2018-05-01T14:17:53.727Z,17.39
2018-05-01T14:20:21.383Z,17.93
2018-05-01T14:22:49.012Z,18.17
2018-05-01T14:25:16.659Z,18.12
2018-05-01T14:27:44.299Z,17.67
2018-05-01T14:30:11.967Z,18.36
2018-05-01T14:32:39.587Z,18.18
2018-05-01T14:35:07.236Z,18.21
2018-05-01T14:37:34.871Z,18.21
2018-05-01T14:40:02.605Z,17.80
2018-05-01T14:42:30.211Z,17.18
2018-05-01T14:44:57.875Z,17.15
2018-05-01T14:47:25.980Z,17.55
2018-05-01T14:49:53.939Z,17.22
2018-05-01T14:52:21.580Z,17.28
2018-05-01T14:54:49.500Z,17.35
2018-05-01T14:57:17.134Z,16.99
2018-05-01T14:59:44.823Z,17.36
2018-05-01T15:02:12.434Z,18.31
2018-05-01T15:04:40.151Z,17.67
2018-05-01T15:07:08.203Z,17.80
2018-05-01T15:09:35.995Z,18.30
2018-05-01T15:12:03.608Z,18.20
2018-05-01T15:14:31.263Z,17.97
2018-05-01T15:16:58.886Z,17.80
2018-05-01T15:19:26.659Z,17.74
2018-05-01T15:21:54.203Z,18.38
2018-05-01T15:24:21.899Z,18.16
2018-05-01T15:26:49.518Z,18.50
2018-05-01T15:29:17.188Z,18.73
2018-05-01T15:31:44.801Z,18.96
2018-05-01T15:34:12.477Z,17.49
2018-05-01T15:36:40.331Z,17.23
2018-05-01T15:39:08.185Z,17.81
2018-05-01T15:41:35.886Z,17.92
2018-05-01T15:44:03.515Z,17.01
2018-05-01T15:46:31.167Z,16.84
2018-05-01T15:48:58.793Z,16.67
2018-05-01T15:51:26.531Z,17.00
2018-05-01T15:53:54.496Z,16.90
2018-05-01T15:56:22.313Z,16.78
2018-05-01T15:58:50.464Z,16.66
2018-05-01T16:01:18.159Z,17.50
2018-05-01T16:03:45.778Z,17.48
2018-05-01T16:06:13.427Z,17.28
2018-05-01T16:08:41.070Z,17.36
2018-05-01T16:11:08.718Z,16.93
2018-05-01T16:13:36.323Z,16.69
2018-05-01T16:16:04.007Z,16.56
2018-05-01T16:18:31.775Z,16.42
2018-05-01T16:20:59.468Z,16.60
2018-05-01T16:23:27.091Z,16.87
2018-05-01T16:25:54.759Z,16.99
2018-05-01T16:28:22.380Z,16.88
2018-05-01T16:30:50.051Z,16.65
2018-05-01T16:33:17.716Z,16.43
2018-05-01T16:35:45.367Z,16.77
2018-05-01T16:38:13.010Z,16.31
2018-05-01T16:40:40.668Z,16.43
2018-05-01T16:43:08.285Z,16.60
2018-05-01T16:45:35.943Z,16.35
2018-05-01T16:48:03.603Z,16.34
2018-05-01T16:50:31.266Z,16.30
2018-05-01T16:52:58.899Z,16.43
2018-05-01T16:55:26.543Z,16.65
2018-05-01T16:57:54.159Z,16.73
2018-05-01T17:00:21.807Z,16.70
2018-05-01T17:02:49.420Z,16.68
2018-05-01T17:05:17.076Z,16.78
2018-05-01T17:07:44.694Z,16.85
2018-05-01T17:10:12.373Z,16.76
2018-05-01T17:12:39.984Z,16.72
2018-05-01T17:15:07.647Z,16.07
2018-05-01T17:17:35.271Z,15.87
2018-05-01T17:20:02.930Z,16.04
2018-05-01T17:22:31.106Z,16.26
2018-05-01T17:24:58.802Z,16.01
2018-05-01T17:27:26.455Z,15.76
2018-05-01T17:29:54.114Z,15.74
2018-05-01T17:32:21.734Z,15.55
2018-05-01T17:34:49.459Z,15.57
2018-05-01T17:37:17.035Z,15.32
2018-05-01T17:39:44.694Z,15.14
2018-05-01T17:42:12.339Z,15.25
2018-05-01T17:44:40.248Z,15.47
2018-05-01T17:47:07.904Z,15.65
2018-05-01T17:49:35.509Z,15.68
2018-05-01T17:52:03.154Z,15.69
2018-05-01T17:54:30.788Z,15.61
2018-05-01T17:56:58.475Z,15.63
2018-05-01T17:59:26.109Z,15.75
2018-05-01T18:01:53.764Z,15.65
2018-05-01T18:04:21.412Z,15.75
2018-05-01T18:06:49.411Z,15.73
2018-05-01T18:09:17.026Z,15.68
2018-05-01T18:11:44.686Z,15.66
2018-05-01T18:14:12.319Z,15.62
2018-05-01T18:16:40.206Z,15.61
2018-05-01T18:19:07.815Z,15.61
2018-05-01T18:21:35.509Z,15.47
2018-05-01T18:24:03.159Z,15.14
2018-05-01T18:26:30.826Z,14.97
2018-05-01T18:28:58.476Z,15.03
2018-05-01T18:31:26.129Z,14.82
2018-05-01T18:33:53.743Z,14.71
2018-05-01T18:36:21.431Z,14.72
2018-05-01T18:38:49.043Z,14.76
2018-05-01T18:41:16.708Z,14.73
2018-05-01T18:43:44.322Z,14.69
2018-05-01T18:46:11.986Z,14.61
2018-05-01T18:48:39.625Z,14.19
2018-05-01T18:51:07.284Z,14.13
2018-05-01T18:53:34.919Z,14.00
2018-05-01T18:56:02.573Z,14.01
2018-05-01T18:58:30.200Z,14.02
2018-05-01T19:00:57.871Z,13.91
2018-05-01T19:03:25.482Z,13.79
2018-05-01T19:05:53.137Z,13.64
2018-05-01T19:08:20.762Z,13.69
2018-05-01T19:10:48.422Z,13.61
2018-05-01T19:13:16.026Z,13.41
2018-05-01T19:15:43.677Z,13.23
2018-05-01T19:18:11.304Z,12.87
2018-05-01T19:20:38.962Z,12.73
2018-05-01T19:23:06.632Z,12.76
2018-05-01T19:25:34.297Z,12.67
2018-05-01T19:28:01.914Z,12.85
2018-05-01T19:30:29.576Z,12.96
2018-05-01T19:32:57.230Z,12.96
2018-05-01T19:35:24.904Z,12.98
2018-05-01T19:37:52.507Z,12.83
2018-05-01T19:40:20.168Z,12.20
2018-05-01T19:42:47.790Z,12.17
2018-05-01T19:45:15.471Z,12.41
2018-05-01T19:47:43.105Z,12.45
2018-05-01T19:50:10.731Z,12.47
2018-05-01T19:52:38.399Z,12.44
2018-05-01T19:55:06.033Z,12.11
2018-05-01T19:57:33.839Z,12.01
2018-05-01T20:00:01.475Z,12.08
2018-05-01T20:02:29.165Z,12.10
2018-05-01T20:04:56.811Z,11.95
2018-05-01T20:07:24.496Z,11.64
2018-05-01T20:09:52.130Z,11.52
2018-05-01T20:12:19.787Z,11.57
2018-05-01T20:14:47.411Z,11.64
2018-05-01T20:17:15.061Z,11.67
2018-05-01T20:19:42.687Z,11.59
2018-05-01T20:22:10.374Z,11.46
2018-05-01T20:24:37.982Z,11.28
2018-05-01T20:27:05.636Z,11.11
2018-05-01T20:29:33.246Z,11.13
2018-05-01T20:32:00.926Z,11.05
2018-05-01T20:34:28.551Z,10.87
2018-05-01T20:36:56.591Z,10.98
2018-05-01T20:39:24.216Z,10.85
2018-05-01T20:41:51.880Z,10.95
2018-05-01T20:44:19.589Z,11.08
2018-05-01T20:46:47.247Z,10.87
2018-05-01T20:49:14.863Z,10.93
2018-05-01T20:51:42.588Z,10.93
2018-05-01T20:54:10.200Z,11.07
2018-05-01T20:56:38.140Z,10.97
2018-05-01T20:59:05.743Z,10.91
2018-05-01T21:01:33.391Z,11.11
2018-05-01T21:04:01.039Z,11.11
2018-05-01T21:06:28.691Z,11.10
2018-05-01T21:08:56.319Z,10.97
2018-05-01T21:11:23.978Z,11.01
2018-05-01T21:13:51.612Z,11.02
2018-05-01T21:16:19.272Z,10.96
2018-05-01T21:18:47.055Z,10.82
2018-05-01T21:21:14.710Z,10.87
2018-05-01T21:23:42.318Z,10.74
2018-05-01T21:26:09.974Z,10.65
2018-05-01T21:28:37.603Z,10.57
2018-05-01T21:31:05.266Z,10.59
2018-05-01T21:33:33.073Z,10.61
2018-05-01T21:36:00.728Z,10.62
2018-05-01T21:38:28.348Z,10.55
2018-05-01T21:40:56.000Z,10.39
2018-05-01T21:43:23.616Z,10.44
2018-05-01T21:45:51.281Z,10.45
2018-05-01T21:48:18.910Z,10.48
2018-05-01T21:50:46.564Z,10.43
2018-05-01T21:53:14.179Z,10.33
2018-05-01T21:55:41.786Z,10.09
2018-05-01T21:58:09.462Z,10.08
2018-05-01T22:00:37.071Z,10.13
2018-05-01T22:03:04.802Z,10.20
2018-05-01T22:05:32.461Z,10.15
2018-05-01T22:08:00.107Z,9.98
2018-05-01T22:10:27.722Z,9.98
2018-05-01T22:12:55.378Z,9.68
2018-05-01T22:15:23.008Z,9.80
2018-05-01T22:17:50.692Z,9.56
2018-05-01T22:20:18.332Z,9.69
2018-05-01T22:22:45.984Z,9.55
2018-05-01T22:25:13.654Z,9.48
2018-05-01T22:27:41.322Z,9.58
2018-05-01T22:30:08.947Z,9.54
2018-05-01T22:32:36.612Z,9.59
2018-05-01T22:35:04.242Z,9.60
2018-05-01T22:37:31.921Z,9.45
2018-05-01T22:39:59.530Z,9.49
2018-05-01T22:42:27.191Z,9.16
2018-05-01T22:44:54.820Z,8.92
2018-05-01T22:47:22.465Z,8.97
2018-05-01T22:49:50.074Z,9.12
2018-05-01T22:52:17.724Z,9.17
2018-05-01T22:54:45.348Z,9.14
2018-05-01T22:57:13.012Z,9.19
2018-05-01T22:59:40.606Z,9.23
2018-05-01T23:02:08.249Z,9.21
2018-05-01T23:04:35.856Z,9.06
2018-05-01T23:07:03.579Z,9.01
2018-05-01T23:09:31.178Z,9.01
2018-05-01T23:11:58.820Z,9.03
2018-05-01T23:14:26.452Z,8.97
2018-05-01T23:16:54.101Z,8.87
2018-05-01T23:19:21.716Z,8.87
2018-05-01T23:21:49.391Z,8.99
2018-05-01T23:24:17.006Z,9.00
2018-05-01T23:26:44.655Z,8.87
2018-05-01T23:29:12.255Z,8.58
2018-05-01T23:31:39.898Z,8.69
2018-05-01T23:34:07.506Z,8.80
2018-05-01T23:36:35.188Z,8.87
2018-05-01T23:39:02.801Z,8.68
2018-05-01T23:41:30.456Z,8.60
2018-05-01T23:43:58.099Z,8.57
2018-05-01T23:46:25.753Z,8.63
2018-05-01T23:48:53.360Z,8.49
2018-05-01T23:51:21.028Z,8.44
2018-05-01T23:53:48.642Z,8.45
2018-05-01T23:56:16.287Z,8.43
2018-05-01T23:58:43.891Z,8.38
